Time;durP1;ratioP1;P1;durP2;ratioP2;P2;SDS_P1;SDS_P2;PMS_P1;PMS_P2;Temp;Humidity;BMP_temperature;BMP_pressure;BME280_temperature;BME280_humidity;BME280_pressure;Samples;Min_cycle;Max_cycle;Signal;HPM_P1;HPM_P2
2022/08/22 00:00:25;;;;;;;;;;;;;;;22.74;93.71;100140.75;12869627;23;20032;-71
2022/08/22 00:05:46;;;;;;;;;;;;;;;22.57;94.69;100153.38;12862106;23;19943;-72
2022/08/22 00:10:54;;;;;;;;;;;;;;;22.40;96.75;100151.72;12868543;23;19927;-69
2022/08/22 00:16:02;;;;;;;;;;;;;;;22.29;98.31;100154.19;12868976;23;20084;-66
2022/08/22 00:21:09;;;;;;;;;;;;;;;22.31;98.44;100160.25;12868221;23;19919;-68
2022/08/22 00:26:20;;;;;;;;;;;;;;;22.17;99.81;100152.28;12868927;23;20015;-65
2022/08/22 00:31:26;;;;;;;;;;;;;;;22.08;100.00;100149.34;12864274;23;20002;-67
2022/08/22 00:36:31;;;;;;;;;;;;;;;22.07;100.00;100161.69;12862071;23;20038;-66
2022/08/22 00:41:44;;;;;;;;;;;;;;;22.28;98.99;100165.69;12867292;23;20003;-66
2022/08/22 00:46:55;;;;;;;;;;;;;;;22.20;99.30;100152.09;12866454;23;19991;-69
2022/08/22 00:52:22;;;;;;;;;;;;;;;22.16;99.37;100157.69;12866371;23;20000;-66
2022/08/22 00:57:39;;;;;;;;;;;;;;;22.03;100.00;100156.69;12812785;23;19947;-66
2022/08/22 01:02:58;;;;;;;;;;;;;;;22.03;100.00;100152.28;12864115;23;20011;-66
2022/08/22 01:08:16;;;;;;;;;;;;;;;21.84;100.00;100164.88;12862371;23;20299;-68
2022/08/22 01:13:28;;;;;;;;;;;;;;;21.88;100.00;100168.19;12861341;23;19999;-69
2022/08/22 01:18:49;;;;;;;;;;;;;;;21.86;100.00;100167.44;12881257;23;19950;-67
2022/08/22 01:24:21;;;;;;;;;;;;;;;21.82;100.00;100168.53;12876520;23;20026;-64
2022/08/22 01:29:48;;;;;;;;;;;;;;;21.83;100.00;100173.72;12868926;23;19920;-66
2022/08/22 01:35:10;;;;;;;;;;;;;;;21.92;100.00;100180.31;12876999;23;19951;-64
2022/08/22 01:40:31;;;;;;;;;;;;;;;21.88;100.00;100173.47;12859837;23;19943;-64
2022/08/22 01:45:52;;;;;;;;;;;;;;;21.84;100.00;100180.75;12860591;23;19999;-65
2022/08/22 01:50:58;;;;;;;;;;;;;;;21.78;100.00;100171.38;12874463;23;19920;-64
2022/08/22 01:56:05;;;;;;;;;;;;;;;21.82;100.00;100165.91;12875714;23;19920;-66
2022/08/22 02:01:16;;;;;;;;;;;;;;;21.73;100.00;100162.84;12875288;23;19931;-67
2022/08/22 02:06:24;;;;;;;;;;;;;;;21.64;100.00;100158.09;12873292;23;20003;-66
2022/08/22 02:11:35;;;;;;;;;;;;;;;21.66;100.00;100163.28;12872255;23;20023;-66
2022/08/22 02:16:39;;;;;;;;;;;;;;;21.49;100.00;100177.47;12859141;23;20014;-66
2022/08/22 02:21:47;;;;;;;;;;;;;;;21.48;100.00;100170.50;12859267;23;20137;-67
2022/08/22 02:26:54;;;;;;;;;;;;;;;21.52;100.00;100168.50;12863272;23;19986;-68
2022/08/22 02:32:00;;;;;;;;;;;;;;;21.51;100.00;100162.41;12861406;23;19987;-68
2022/08/22 02:37:08;;;;;;;;;;;;;;;21.62;100.00;100172.34;12878234;23;19951;-69
2022/08/22 02:42:17;;;;;;;;;;;;;;;21.62;100.00;100170.53;12879818;23;19995;-70
2022/08/22 02:47:26;;;;;;;;;;;;;;;21.55;100.00;100177.09;12882199;23;19994;-71
2022/08/22 02:52:34;;;;;;;;;;;;;;;21.55;100.00;100173.63;12881428;23;19986;-69
2022/08/22 02:57:42;;;;;;;;;;;;;;;21.47;100.00;100189.06;12870626;23;19920;-70
2022/08/22 03:02:59;;;;;;;;;;;;;;;21.53;100.00;100183.44;12880630;23;19994;-74
2022/08/22 03:08:08;;;;;;;;;;;;;;;21.58;100.00;100186.66;12879643;23;19954;-73
2022/08/22 03:13:18;;;;;;;;;;;;;;;21.63;100.00;100187.25;12879738;23;19986;-71
2022/08/22 03:18:24;;;;;;;;;;;;;;;21.60;100.00;100190.06;12878548;23;19983;-72
2022/08/22 03:23:36;;;;;;;;;;;;;;;21.57;100.00;100188.44;12869896;23;19931;-70
2022/08/22 03:28:43;;;;;;;;;;;;;;;21.62;100.00;100196.13;12877723;23;20007;-72
2022/08/22 03:34:20;;;;;;;;;;;;;;;21.55;100.00;100197.41;12876523;23;20278;-71
2022/08/22 03:39:35;;;;;;;;;;;;;;;21.55;100.00;100200.06;12875299;23;20322;-73
2022/08/22 03:44:52;;;;;;;;;;;;;;;21.65;100.00;100202.06;12874224;23;19947;-69
2022/08/22 03:50:10;;;;;;;;;;;;;;;21.57;100.00;100193.72;12870113;23;19931;-71
2022/08/22 03:55:21;;;;;;;;;;;;;;;21.53;100.00;100207.22;12872442;23;19976;-68
2022/08/22 04:00:34;;;;;;;;;;;;;;;21.47;100.00;100216.31;12871551;23;20050;-71
2022/08/22 04:05:57;;;;;;;;;;;;;;;21.40;100.00;100220.25;12870461;23;20015;-69
2022/08/22 04:11:20;;;;;;;;;;;;;;;21.46;100.00;100224.34;12870077;23;19999;-69
2022/08/22 04:16:38;;;;;;;;;;;;;;;21.49;100.00;100218.88;12888984;23;19998;-72
2022/08/22 04:21:53;;;;;;;;;;;;;;;21.39;100.00;100215.91;12864808;23;19923;-64
2022/08/22 04:26:57;;;;;;;;;;;;;;;21.31;100.00;100225.22;12872448;23;20278;-64
2022/08/22 04:32:07;;;;;;;;;;;;;;;21.32;100.00;100225.13;12867990;23;20262;-64
2022/08/22 04:37:21;;;;;;;;;;;;;;;21.33;100.00;100225.97;12886153;23;19936;-65
2022/08/22 04:42:29;;;;;;;;;;;;;;;21.37;100.00;100238.06;12884607;23;19944;-64
2022/08/22 04:47:37;;;;;;;;;;;;;;;21.37;100.00;100241.56;12868440;23;19959;-67
2022/08/22 04:52:52;;;;;;;;;;;;;;;21.43;100.00;100248.28;12885603;23;19943;-67
2022/08/22 04:58:02;;;;;;;;;;;;;;;21.49;100.00;100242.66;12883957;23;20022;-67
2022/08/22 05:03:11;;;;;;;;;;;;;;;21.56;100.00;100233.44;12883890;23;19974;-64
2022/08/22 05:08:19;;;;;;;;;;;;;;;21.52;100.00;100239.81;12883158;23;20279;-65
2022/08/22 05:13:24;;;;;;;;;;;;;;;21.52;100.00;100245.09;12882755;23;19944;-75
2022/08/22 05:18:28;;;;;;;;;;;;;;;21.64;100.00;100244.44;12866196;23;19928;-71
2022/08/22 05:23:37;;;;;;;;;;;;;;;21.75;100.00;100239.38;12866492;23;19920;-73
2022/08/22 05:28:44;;;;;;;;;;;;;;;21.76;100.00;100251.66;12882519;23;20271;-73
2022/08/22 05:33:49;;;;;;;;;;;;;;;21.82;100.00;100256.63;12878572;23;19994;-73
2022/08/22 05:38:56;;;;;;;;;;;;;;;21.89;100.00;100252.69;12867107;23;19954;-73
2022/08/22 05:43:59;;;;;;;;;;;;;;;21.97;100.00;100254.88;12882179;23;20280;-72
2022/08/22 05:49:04;;;;;;;;;;;;;;;22.00;100.00;100249.41;12866644;23;19920;-74
2022/08/22 05:54:12;;;;;;;;;;;;;;;22.08;100.00;100250.66;12865656;23;19943;-72
2022/08/22 05:59:21;;;;;;;;;;;;;;;22.17;100.00;100251.91;12880972;23;20233;-74
2022/08/22 06:04:27;;;;;;;;;;;;;;;22.21;100.00;100248.97;12882144;23;19958;-73
2022/08/22 06:09:33;;;;;;;;;;;;;;;22.26;100.00;100246.91;12867107;23;19927;-69
2022/08/22 06:14:42;;;;;;;;;;;;;;;22.36;100.00;100247.22;12881611;23;19920;-74
2022/08/22 06:19:46;;;;;;;;;;;;;;;22.47;100.00;100250.06;12880837;23;19931;-74
2022/08/22 06:24:52;;;;;;;;;;;;;;;22.52;100.00;100251.50;12865989;23;20015;-72
2022/08/22 06:29:58;;;;;;;;;;;;;;;22.60;100.00;100245.78;12881034;23;20375;-70
2022/08/22 06:35:03;;;;;;;;;;;;;;;22.65;100.00;100249.00;12881294;23;20308;-74
2022/08/22 06:40:11;;;;;;;;;;;;;;;22.76;99.91;100252.66;12880537;23;19947;-73
2022/08/22 06:45:17;;;;;;;;;;;;;;;22.85;99.47;100254.75;12875704;23;19950;-73
2022/08/22 06:50:23;;;;;;;;;;;;;;;22.95;98.27;100251.53;12858414;23;19951;-73
2022/08/22 06:55:28;;;;;;;;;;;;;;;23.03;97.57;100255.41;12874037;23;19982;-72
2022/08/22 07:00:32;;;;;;;;;;;;;;;23.08;97.05;100257.75;12872977;23;19995;-75
2022/08/22 07:05:37;;;;;;;;;;;;;;;23.17;96.30;100259.84;12858451;23;20338;-67
2022/08/22 07:10:43;;;;;;;;;;;;;;;23.35;95.91;100261.34;12858680;23;19995;-68
2022/08/22 07:15:52;;;;;;;;;;;;;;;23.50;95.27;100263.03;12873712;23;20048;-67
2022/08/22 07:21:01;;;;;;;;;;;;;;;23.67;94.13;100260.97;12873129;23;19995;-68
2022/08/22 07:26:13;;;;;;;;;;;;;;;23.77;94.16;100264.72;12866074;23;20013;-71
2022/08/22 07:31:24;;;;;;;;;;;;;;;23.90;93.39;100272.72;12876236;23;19963;-68
2022/08/22 07:36:30;;;;;;;;;;;;;;;23.92;92.73;100260.19;12875955;23;20318;-67
2022/08/22 07:41:42;;;;;;;;;;;;;;;23.98;91.88;100270.41;12875662;23;20323;-69
2022/08/22 07:46:50;;;;;;;;;;;;;;;23.98;91.54;100271.25;12875452;23;19955;-68
2022/08/22 07:51:55;;;;;;;;;;;;;;;24.08;91.16;100271.53;12875784;23;19995;-72
2022/08/22 07:57:03;;;;;;;;;;;;;;;24.17;91.00;100272.72;12864338;23;19943;-69
2022/08/22 08:02:08;;;;;;;;;;;;;;;24.26;90.27;100267.66;12864581;23;19948;-71
2022/08/22 08:07:14;;;;;;;;;;;;;;;24.31;89.78;100270.84;12876646;23;19931;-73
2022/08/22 08:12:20;;;;;;;;;;;;;;;24.34;89.29;100270.63;12874616;23;20006;-71
2022/08/22 08:17:25;;;;;;;;;;;;;;;24.41;89.41;100266.59;12874682;23;19951;-74
2022/08/22 08:22:34;;;;;;;;;;;;;;;24.47;89.34;100266.16;12861870;23;19935;-75
2022/08/22 08:33:01;;;;;;;;;;;;;;;24.65;87.45;100266.69;12873155;23;20371;-72
2022/08/22 08:38:27;;;;;;;;;;;;;;;24.74;86.96;100261.66;12872121;23;19920;-73
2022/08/22 08:43:40;;;;;;;;;;;;;;;24.83;86.54;100262.81;12871845;23;20326;-74
2022/08/22 08:49:01;;;;;;;;;;;;;;;24.91;86.26;100263.97;12860659;23;19962;-73
2022/08/22 08:54:14;;;;;;;;;;;;;;;25.08;85.13;100268.94;12869697;23;20054;-73
2022/08/22 08:59:26;;;;;;;;;;;;;;;25.23;84.66;100256.34;12869723;23;20006;-73
2022/08/22 09:04:37;;;;;;;;;;;;;;;25.30;84.04;100260.25;12860108;23;19956;-74
2022/08/22 09:09:48;;;;;;;;;;;;;;;25.33;84.41;100259.19;12868172;23;20269;-74
2022/08/22 09:15:09;;;;;;;;;;;;;;;25.43;84.54;100261.13;12867613;23;20009;-74
2022/08/22 09:20:49;;;;;;;;;;;;;;;25.72;82.95;100253.66;12860476;23;19947;-67
2022/08/22 09:25:55;;;;;;;;;;;;;;;25.85;82.39;100251.78;12866588;23;19997;-67
2022/08/22 09:31:24;;;;;;;;;;;;;;;25.98;80.81;100255.22;12866995;23;19958;-66
2022/08/22 09:36:58;;;;;;;;;;;;;;;25.88;81.30;100254.22;12862919;23;20275;-66
2022/08/22 09:42:07;;;;;;;;;;;;;;;25.82;81.29;100250.19;12880580;23;20487;-67
2022/08/22 09:47:16;;;;;;;;;;;;;;;25.97;80.39;100243.72;12880175;23;19944;-73
2022/08/22 09:52:35;;;;;;;;;;;;;;;26.62;77.08;100244.06;12881527;23;20334;-68
2022/08/22 09:57:41;;;;;;;;;;;;;;;28.09;69.03;100238.25;12888066;23;19931;-68
2022/08/22 10:02:46;;;;;;;;;;;;;;;27.29;73.31;100242.25;12865871;23;19990;-71
2022/08/22 10:08:00;;;;;;;;;;;;;;;26.74;76.46;100242.25;12868437;23;20042;-71
2022/08/22 10:13:09;;;;;;;;;;;;;;;26.62;76.31;100252.03;12885980;23;19920;-69
2022/08/22 10:18:17;;;;;;;;;;;;;;;26.53;77.44;100244.75;12866536;23;19947;-64
2022/08/22 10:23:24;;;;;;;;;;;;;;;26.39;77.75;100258.28;12866039;23;19931;-72
2022/08/22 10:28:32;;;;;;;;;;;;;;;26.28;78.36;100254.75;12865645;23;19955;-71
2022/08/22 10:33:39;;;;;;;;;;;;;;;26.15;78.99;100254.81;12885573;23;19939;-66
2022/08/22 10:38:49;;;;;;;;;;;;;;;26.02;79.26;100262.03;12865994;23;20041;-72
2022/08/22 10:43:57;;;;;;;;;;;;;;;26.04;78.77;100265.44;12884639;23;20223;-69
2022/08/22 10:49:08;;;;;;;;;;;;;;;26.29;78.56;100254.63;12865491;23;20272;-67
2022/08/22 10:54:18;;;;;;;;;;;;;;;26.48;79.30;100256.72;12865304;23;19943;-68
2022/08/22 10:59:27;;;;;;;;;;;;;;;26.64;78.07;100263.44;12881838;23;19995;-67
2022/08/22 11:04:39;;;;;;;;;;;;;;;26.58;77.22;100260.38;12878826;23;19966;-68
2022/08/22 11:09:43;;;;;;;;;;;;;;;26.62;77.23;100254.69;12862478;23;20295;-67
2022/08/22 11:15:04;;;;;;;;;;;;;;;26.69;76.96;100263.09;12862080;23;19923;-70
2022/08/22 11:20:14;;;;;;;;;;;;;;;26.70;76.55;100252.31;12879723;23;20332;-72
2022/08/22 11:25:26;;;;;;;;;;;;;;;26.81;75.71;100262.13;12872504;23;20007;-72
2022/08/22 11:30:45;;;;;;;;;;;;;;;26.92;75.19;100260.31;12882252;23;19928;-66
2022/08/22 11:35:56;;;;;;;;;;;;;;;26.97;74.84;100255.44;12882858;23;20324;-70
2022/08/22 11:41:11;;;;;;;;;;;;;;;27.10;74.52;100255.34;12883892;23;19951;-69
2022/08/22 11:46:18;;;;;;;;;;;;;;;27.17;74.07;100257.41;12882976;23;20244;-66
2022/08/22 11:51:30;;;;;;;;;;;;;;;27.13;73.86;100258.59;12882797;23;20296;-69
2022/08/22 11:56:43;;;;;;;;;;;;;;;27.21;74.39;100250.00;12882097;23;19924;-68
2022/08/22 12:01:49;;;;;;;;;;;;;;;27.29;74.02;100256.44;12869338;23;19944;-70
2022/08/22 12:06:58;;;;;;;;;;;;;;;27.26;73.87;100259.34;12881396;23;20319;-66
2022/08/22 12:12:12;;;;;;;;;;;;;;;27.31;72.66;100253.66;12881284;23;20010;-69
2022/08/22 12:17:20;;;;;;;;;;;;;;;27.28;72.51;100256.53;12867799;23;20372;-71
2022/08/22 12:22:51;;;;;;;;;;;;;;;27.20;73.11;100250.97;12879871;23;20258;-68
2022/08/22 12:28:00;;;;;;;;;;;;;;;27.23;72.62;100248.91;12867686;23;19986;-67
2022/08/22 12:33:19;;;;;;;;;;;;;;;27.23;72.78;100253.41;12878309;23;20002;-74
2022/08/22 12:38:32;;;;;;;;;;;;;;;27.09;72.67;100256.31;12868038;23;19947;-71
2022/08/22 12:43:50;;;;;;;;;;;;;;;27.01;73.13;100254.25;12867292;23;20325;-74
2022/08/22 12:49:09;;;;;;;;;;;;;;;27.00;73.82;100251.72;12875451;23;19920;-71
2022/08/22 12:54:34;;;;;;;;;;;;;;;27.05;73.06;100245.06;12874097;23;20243;-71
2022/08/22 12:59:41;;;;;;;;;;;;;;;27.05;72.61;100250.38;12873078;23;20308;-73
2022/08/22 13:04:52;;;;;;;;;;;;;;;27.10;73.77;100242.88;12872493;23;19939;-73
2022/08/22 13:09:57;;;;;;;;;;;;;;;27.15;73.95;100248.66;12872286;23;19943;-75
2022/08/22 13:15:06;;;;;;;;;;;;;;;27.20;72.64;100249.16;12872507;23;19943;-75
2022/08/22 13:20:21;;;;;;;;;;;;;;;27.25;73.44;100240.78;12867720;23;19920;-72
2022/08/22 13:25:29;;;;;;;;;;;;;;;27.29;72.92;100245.78;12869808;23;19936;-72
2022/08/22 13:30:35;;;;;;;;;;;;;;;27.26;72.73;100242.47;12866784;23;19920;-73
2022/08/22 13:35:42;;;;;;;;;;;;;;;27.32;72.85;100243.84;12870145;23;19935;-72
2022/08/22 13:40:54;;;;;;;;;;;;;;;27.38;73.22;100243.34;12869651;23;19987;-71
2022/08/22 13:45:59;;;;;;;;;;;;;;;27.42;73.60;100234.97;12866502;23;19943;-73
2022/08/22 13:51:06;;;;;;;;;;;;;;;27.49;72.65;100238.81;12869024;23;19951;-65
2022/08/22 13:56:13;;;;;;;;;;;;;;;27.49;72.25;100236.16;12859539;23;20287;-73
2022/08/22 14:01:27;;;;;;;;;;;;;;;27.57;72.06;100233.72;12861745;23;19995;-73
2022/08/22 14:06:35;;;;;;;;;;;;;;;27.61;71.84;100223.66;12859372;23;19995;-73
2022/08/22 14:11:48;;;;;;;;;;;;;;;27.61;71.45;100220.97;12860570;23;19920;-71
2022/08/22 14:16:53;;;;;;;;;;;;;;;27.57;71.80;100214.19;12860651;23;19931;-66
2022/08/22 14:21:58;;;;;;;;;;;;;;;27.42;72.70;100210.13;12861215;23;20289;-68
2022/08/22 14:27:04;;;;;;;;;;;;;;;27.33;72.66;100210.88;12858518;23;20004;-69
2022/08/22 14:32:30;;;;;;;;;;;;;;;27.27;72.50;100217.50;12858958;23;20503;-70
2022/08/22 14:37:40;;;;;;;;;;;;;;;27.21;72.49;100218.84;12860951;23;19990;-70
2022/08/22 14:42:45;;;;;;;;;;;;;;;27.13;72.29;100218.63;12881235;23;19948;-70
2022/08/22 14:47:52;;;;;;;;;;;;;;;27.08;73.18;100218.16;12858535;23;19951;-71
2022/08/22 14:53:21;;;;;;;;;;;;;;;27.02;73.15;100209.81;12879571;23;20303;-68
2022/08/22 14:58:27;;;;;;;;;;;;;;;26.96;73.72;100224.47;12877536;23;20425;-70
2022/08/22 15:03:33;;;;;;;;;;;;;;;26.91;73.62;100215.13;12879499;23;19947;-71
2022/08/22 15:08:41;;;;;;;;;;;;;;;26.88;73.80;100207.41;12878338;23;20511;-73
2022/08/22 15:14:06;;;;;;;;;;;;;;;26.84;75.00;100197.94;12858420;23;19991;-68
2022/08/22 15:19:25;;;;;;;;;;;;;;;26.84;76.62;100206.78;12880361;23;19943;-73
2022/08/22 15:24:29;;;;;;;;;;;;;;;26.78;77.11;100215.28;12877044;23;20387;-75
2022/08/22 15:29:36;;;;;;;;;;;;;;;26.67;75.85;100211.75;12866053;23;19985;-74
2022/08/22 15:34:43;;;;;;;;;;;;;;;26.60;76.42;100214.03;12883232;23;19920;-73
2022/08/22 15:39:58;;;;;;;;;;;;;;;26.55;76.62;100199.38;12883597;23;19966;-75
2022/08/22 15:45:02;;;;;;;;;;;;;;;26.51;76.79;100201.41;12865856;23;19995;-73
2022/08/22 15:50:10;;;;;;;;;;;;;;;26.47;77.42;100204.44;12867038;23;19991;-74
2022/08/22 15:55:22;;;;;;;;;;;;;;;26.41;78.73;100196.94;12885338;23;19981;-69
2022/08/22 16:00:28;;;;;;;;;;;;;;;26.38;78.41;100194.50;12885806;23;20260;-65
2022/08/22 16:05:44;;;;;;;;;;;;;;;26.33;78.67;100197.53;12869134;23;19943;-71
2022/08/22 16:10:49;;;;;;;;;;;;;;;26.30;78.92;100200.41;12868503;23;19940;-67
2022/08/22 16:15:58;;;;;;;;;;;;;;;26.25;79.03;100199.94;12868918;23;20002;-67
2022/08/22 16:21:04;;;;;;;;;;;;;;;26.20;79.40;100199.44;12884498;23;19991;-71
2022/08/22 16:26:09;;;;;;;;;;;;;;;26.14;79.37;100211.41;12867769;23;19944;-68
2022/08/22 16:31:18;;;;;;;;;;;;;;;26.11;79.62;100213.47;12882801;23;20293;-76
2022/08/22 16:36:39;;;;;;;;;;;;;;;26.07;79.72;100209.34;12882885;23;19939;-73
2022/08/22 16:41:43;;;;;;;;;;;;;;;26.05;79.14;100224.56;12868208;23;19939;-75
2022/08/22 16:46:47;;;;;;;;;;;;;;;26.01;78.38;100215.06;12868039;23;19943;-74
2022/08/22 16:52:08;;;;;;;;;;;;;;;26.00;78.44;100221.38;12867715;23;19959;-75
2022/08/22 16:57:21;;;;;;;;;;;;;;;25.98;78.25;100212.66;12842380;23;19924;-71
2022/08/22 17:02:36;;;;;;;;;;;;;;;25.93;78.75;100214.81;12880776;23;20390;-69
2022/08/22 17:07:49;;;;;;;;;;;;;;;25.85;79.28;100214.56;12877341;23;19991;-73
2022/08/22 17:13:01;;;;;;;;;;;;;;;25.79;80.24;100222.97;12872962;23;20271;-73
2022/08/22 17:18:13;;;;;;;;;;;;;;;25.75;79.18;100226.81;12872635;23;20002;-74
2022/08/22 17:23:24;;;;;;;;;;;;;;;25.68;79.66;100245.06;12871891;23;19966;-73
2022/08/22 17:28:37;;;;;;;;;;;;;;;25.63;80.36;100249.00;12871623;23;19920;-73
2022/08/22 17:33:52;;;;;;;;;;;;;;;25.57;80.88;100252.13;12874991;23;19974;-79
2022/08/22 17:39:03;;;;;;;;;;;;;;;25.49;80.69;100257.16;12875617;23;19991;-72
2022/08/22 17:44:13;;;;;;;;;;;;;;;25.42;81.39;100261.22;12876265;23;20011;-70
2022/08/22 17:49:21;;;;;;;;;;;;;;;25.30;83.26;100262.09;12875851;23;19987;-69
2022/08/22 17:54:28;;;;;;;;;;;;;;;25.20;83.71;100269.84;12875721;23;19920;-69
2022/08/22 17:59:34;;;;;;;;;;;;;;;25.10;83.33;100280.31;12866412;23;20308;-69
2022/08/22 18:04:41;;;;;;;;;;;;;;;25.05;83.71;100281.59;12875148;23;19919;-70
2022/08/22 18:09:52;;;;;;;;;;;;;;;24.96;84.44;100295.50;12874571;23;20319;-70
2022/08/22 18:14:59;;;;;;;;;;;;;;;24.92;84.69;100291.34;12874555;23;19970;-69
2022/08/22 18:20:07;;;;;;;;;;;;;;;24.92;84.06;100305.50;12874842;23;19958;-70
2022/08/22 18:25:14;;;;;;;;;;;;;;;24.86;84.58;100307.72;12874247;23;19966;-70
2022/08/22 18:30:20;;;;;;;;;;;;;;;24.79;85.07;100304.66;12874044;23;20050;-69
2022/08/22 18:35:26;;;;;;;;;;;;;;;24.77;85.82;100316.34;12866046;23;20319;-74
2022/08/22 18:40:37;;;;;;;;;;;;;;;24.70;86.10;100326.53;12870638;23;20042;-73
2022/08/22 18:46:01;;;;;;;;;;;;;;;24.67;86.29;100321.41;12865562;23;19996;-72
2022/08/22 18:51:14;;;;;;;;;;;;;;;24.65;87.53;100314.47;12871588;23;19944;-74
2022/08/22 18:56:21;;;;;;;;;;;;;;;24.62;87.24;100318.22;12871029;23;19960;-73
2022/08/22 19:01:33;;;;;;;;;;;;;;;24.59;87.29;100309.63;12868381;23;20007;-66
2022/08/22 19:06:54;;;;;;;;;;;;;;;24.43;87.86;100312.47;12859160;23;19931;-65
2022/08/22 19:12:06;;;;;;;;;;;;;;;24.43;88.42;100306.28;12859538;23;20019;-68
2022/08/22 19:17:22;;;;;;;;;;;;;;;24.34;88.65;100309.56;12861609;23;20279;-66
2022/08/22 19:22:32;;;;;;;;;;;;;;;24.28;88.88;100315.28;12879142;23;19919;-69
2022/08/22 19:27:38;;;;;;;;;;;;;;;24.19;89.98;100315.91;12861859;23;19924;-70
2022/08/22 19:33:00;;;;;;;;;;;;;;;24.09;91.24;100313.00;12883778;23;20083;-67
2022/08/22 19:38:04;;;;;;;;;;;;;;;24.09;91.58;100304.22;12863322;23;19958;-67
2022/08/22 19:43:19;;;;;;;;;;;;;;;24.10;91.80;100309.41;12862675;23;20011;-68
2022/08/22 19:48:28;;;;;;;;;;;;;;;24.04;92.53;100308.97;12862857;23;19943;-66
2022/08/22 19:53:35;;;;;;;;;;;;;;;23.97;92.99;100314.63;12884149;23;19931;-70
2022/08/22 19:58:49;;;;;;;;;;;;;;;23.89;93.86;100324.03;12884819;23;20242;-69
2022/08/22 20:03:55;;;;;;;;;;;;;;;23.84;94.30;100326.13;12862654;23;19991;-66
2022/08/22 20:09:07;;;;;;;;;;;;;;;23.80;94.96;100332.59;12862225;23;19919;-65
2022/08/22 20:14:11;;;;;;;;;;;;;;;23.77;96.23;100325.69;12882155;23;20323;-79
2022/08/22 20:19:21;;;;;;;;;;;;;;;23.73;97.62;100332.13;12882466;23;20401;-64
2022/08/22 20:24:29;;;;;;;;;;;;;;;23.64;98.26;100329.25;12875503;23;20022;-66
2022/08/22 20:29:33;;;;;;;;;;;;;;;23.59;98.56;100318.09;12861787;23;19943;-63
2022/08/22 20:34:38;;;;;;;;;;;;;;;23.56;98.73;100312.97;12860113;23;19924;-62
2022/08/22 20:39:48;;;;;;;;;;;;;;;23.55;98.05;100306.81;12881567;23;20311;-63
2022/08/22 20:45:01;;;;;;;;;;;;;;;23.56;98.46;100328.84;12861540;23;19943;-65
2022/08/22 20:50:19;;;;;;;;;;;;;;;23.46;99.62;100327.75;12860562;23;19973;-63
2022/08/22 20:55:24;;;;;;;;;;;;;;;23.46;99.91;100327.75;12879423;23;20003;-64
2022/08/22 21:00:39;;;;;;;;;;;;;;;23.53;99.18;100316.66;12879580;23;19948;-65
2022/08/22 21:05:45;;;;;;;;;;;;;;;23.41;100.00;100319.25;12860949;23;20359;-65
2022/08/22 21:16:19;;;;;;;;;;;;;;;23.33;100.00;100316.22;12876868;23;19998;-64
2022/08/22 21:21:24;;;;;;;;;;;;;;;23.28;100.00;100310.38;12861023;23;20030;-62
2022/08/22 21:26:29;;;;;;;;;;;;;;;23.23;100.00;100309.78;12868430;23;19996;-62
2022/08/22 21:31:35;;;;;;;;;;;;;;;23.29;100.00;100317.38;12861224;23;20051;-64
2022/08/22 21:36:39;;;;;;;;;;;;;;;23.22;100.00;100318.66;12877067;23;19967;-65
2022/08/22 21:41:43;;;;;;;;;;;;;;;23.21;100.00;100311.69;12860368;23;19990;-63
2022/08/22 21:46:46;;;;;;;;;;;;;;;23.24;100.00;100300.88;12860305;23;19991;-63
2022/08/22 21:51:55;;;;;;;;;;;;;;;23.20;100.00;100304.66;12876805;23;19953;-63
2022/08/22 21:57:00;;;;;;;;;;;;;;;23.08;100.00;100308.06;12859288;23;19923;-65
2022/08/22 22:02:17;;;;;;;;;;;;;;;23.10;100.00;100303.53;12859197;23;19943;-64
2022/08/22 22:07:23;;;;;;;;;;;;;;;22.99;100.00;100290.97;12859032;23;19920;-64
2022/08/22 22:12:26;;;;;;;;;;;;;;;23.03;100.00;100294.28;12859544;23;19955;-63
2022/08/22 22:17:29;;;;;;;;;;;;;;;22.95;100.00;100292.13;12858890;23;19923;-64
2022/08/22 22:22:34;;;;;;;;;;;;;;;22.92;100.00;100286.16;12859096;23;20319;-65
2022/08/22 22:27:44;;;;;;;;;;;;;;;23.04;100.00;100275.63;12859846;23;19994;-66
2022/08/22 22:32:47;;;;;;;;;;;;;;;22.97;100.00;100269.00;12860286;23;19999;-63
2022/08/22 22:37:55;;;;;;;;;;;;;;;22.98;100.00;100272.53;12876030;23;19998;-71
2022/08/22 22:42:58;;;;;;;;;;;;;;;23.01;100.00;100265.25;12864172;23;19942;-75
2022/08/22 22:48:02;;;;;;;;;;;;;;;23.01;100.00;100259.09;12866573;23;20421;-70
2022/08/22 22:53:06;;;;;;;;;;;;;;;22.99;100.00;100268.94;12867325;23;19987;-71
2022/08/22 22:58:12;;;;;;;;;;;;;;;22.89;100.00;100269.50;12883661;23;20343;-72
2022/08/22 23:03:16;;;;;;;;;;;;;;;22.86;100.00;100267.06;12870376;23;19948;-68
2022/08/22 23:08:20;;;;;;;;;;;;;;;22.81;100.00;100281.53;12870638;23;19991;-67
2022/08/22 23:13:23;;;;;;;;;;;;;;;22.85;100.00;100278.56;12870174;23;19995;-73
2022/08/22 23:18:29;;;;;;;;;;;;;;;22.85;100.00;100288.31;12869847;23;19982;-71
2022/08/22 23:23:35;;;;;;;;;;;;;;;22.79;100.00;100284.28;12887302;23;19920;-70
2022/08/22 23:28:38;;;;;;;;;;;;;;;22.76;100.00;100284.44;12869509;23;19920;-69
2022/08/22 23:33:41;;;;;;;;;;;;;;;22.70;100.00;100273.38;12870038;23;19951;-73
2022/08/22 23:38:46;;;;;;;;;;;;;;;22.74;100.00;100275.72;12869492;23;19924;-70
2022/08/22 23:43:52;;;;;;;;;;;;;;;22.68;100.00;100280.56;12869203;23;19936;-72
2022/08/22 23:48:55;;;;;;;;;;;;;;;22.65;100.00;100273.66;12869159;23;19982;-71
2022/08/22 23:54:00;;;;;;;;;;;;;;;22.62;100.00;100292.34;12869318;23;20259;-71
2022/08/22 23:59:04;;;;;;;;;;;;;;;22.62;100.00;100296.81;12868919;23;19939;-69
